createdAt,value
2018-07-20T00:02:02.601Z,6.90
2018-07-20T00:04:31.369Z,6.87
2018-07-20T00:07:00.105Z,6.17
2018-07-20T00:09:28.861Z,7.13
2018-07-20T00:11:57.902Z,7.43
2018-07-20T00:14:26.735Z,6.33
2018-07-20T00:16:55.558Z,6.97
2018-07-20T00:19:24.364Z,7.20
2018-07-20T00:21:53.198Z,6.33
2018-07-20T00:24:21.948Z,5.93
2018-07-20T00:26:50.740Z,6.47
2018-07-20T00:29:19.539Z,6.83
2018-07-20T00:31:48.290Z,7.63
2018-07-20T00:34:17.097Z,6.53
2018-07-20T00:36:45.897Z,6.80
2018-07-20T00:39:14.677Z,6.80
2018-07-20T00:41:43.683Z,6.57
2018-07-20T00:44:12.462Z,7.57
2018-07-20T00:46:41.243Z,7.03
2018-07-20T00:49:10.048Z,8.97
2018-07-20T00:51:39.057Z,6.87
2018-07-20T00:54:07.989Z,6.57
2018-07-20T00:56:36.759Z,7.73
2018-07-20T00:59:05.626Z,7.03
2018-07-20T01:01:34.700Z,6.73
2018-07-20T01:04:03.510Z,6.67
2018-07-20T01:06:32.311Z,6.57
2018-07-20T01:09:01.087Z,7.60
2018-07-20T01:11:29.873Z,6.67
2018-07-20T01:13:58.715Z,6.47
2018-07-20T01:16:27.505Z,7.00
2018-07-20T01:18:56.323Z,6.80
2018-07-20T01:21:25.367Z,6.73
2018-07-20T01:23:54.199Z,7.17
2018-07-20T01:26:22.951Z,6.50
2018-07-20T01:28:51.793Z,7.13
2018-07-20T01:31:20.759Z,6.60
2018-07-20T01:33:49.820Z,5.93
2018-07-20T01:36:18.620Z,6.10
2018-07-20T01:38:47.382Z,6.97
2018-07-20T01:41:16.378Z,5.70
2018-07-20T01:43:45.159Z,6.60
2018-07-20T01:46:13.942Z,7.20
2018-07-20T01:48:42.688Z,6.43
2018-07-20T01:51:11.458Z,6.63
2018-07-20T01:53:40.273Z,6.10
2018-07-20T01:56:09.042Z,6.87
2018-07-20T01:58:37.821Z,6.50
2018-07-20T02:01:06.647Z,7.47
2018-07-20T02:03:35.398Z,6.97
2018-07-20T02:06:04.190Z,6.37
2018-07-20T02:08:32.971Z,6.70
2018-07-20T02:11:06.775Z,6.70
2018-07-20T02:13:35.567Z,8.27
2018-07-20T02:16:04.370Z,8.77
2018-07-20T02:18:33.135Z,6.87
2018-07-20T02:21:02.159Z,6.43
2018-07-20T02:23:30.936Z,7.77
2018-07-20T02:25:59.677Z,6.70
2018-07-20T02:28:28.518Z,6.77
2018-07-20T02:30:57.221Z,6.70
2018-07-20T02:33:25.938Z,6.73
2018-07-20T02:35:54.760Z,6.30
2018-07-20T02:38:23.573Z,7.10
2018-07-20T02:40:52.309Z,6.83
2018-07-20T02:43:21.058Z,6.83
2018-07-20T02:45:49.811Z,7.77
2018-07-20T02:48:18.602Z,8.47
2018-07-20T02:50:47.664Z,7.90
2018-07-20T02:53:16.509Z,6.87
2018-07-20T02:55:45.295Z,6.97
2018-07-20T02:58:14.008Z,7.17
2018-07-20T03:00:42.966Z,7.80
2018-07-20T03:03:11.738Z,7.20
2018-07-20T03:05:40.512Z,7.47
2018-07-20T03:08:09.351Z,7.10
2018-07-20T03:10:38.308Z,7.63
2018-07-20T03:13:07.356Z,8.67
2018-07-20T03:15:36.102Z,8.10
2018-07-20T03:18:04.852Z,9.47
2018-07-20T03:20:33.687Z,11.73
2018-07-20T03:23:02.459Z,9.30
2018-07-20T03:25:31.259Z,7.20
2018-07-20T03:28:00.067Z,7.20
2018-07-20T03:30:28.906Z,7.27
2018-07-20T03:32:57.778Z,7.67
2018-07-20T03:35:26.479Z,7.83
2018-07-20T03:37:55.292Z,6.97
2018-07-20T03:40:24.335Z,7.07
2018-07-20T03:42:53.076Z,6.77
2018-07-20T03:45:21.833Z,7.70
2018-07-20T03:47:50.612Z,10.00
2018-07-20T03:50:19.369Z,7.10
2018-07-20T03:52:48.161Z,7.33
2018-07-20T03:55:16.940Z,8.90
2018-07-20T03:57:45.778Z,7.57
2018-07-20T04:00:14.625Z,7.50
2018-07-20T04:02:43.378Z,10.40
2018-07-20T04:05:12.225Z,11.37
2018-07-20T04:07:41.024Z,6.97
2018-07-20T04:10:09.839Z,9.10
2018-07-20T04:12:38.553Z,7.23
2018-07-20T04:15:07.359Z,6.67
2018-07-20T04:17:41.446Z,6.63
2018-07-20T04:20:10.243Z,8.37
2018-07-20T04:22:39.092Z,7.93
2018-07-20T04:25:07.933Z,7.47
2018-07-20T04:27:37.042Z,7.83
2018-07-20T04:30:08.245Z,9.83
2018-07-20T04:32:37.360Z,7.03
2018-07-20T04:35:06.403Z,6.40
2018-07-20T04:37:35.238Z,7.37
2018-07-20T04:40:04.043Z,9.27
2018-07-20T04:42:32.935Z,7.43
2018-07-20T04:45:01.771Z,6.73
2018-07-20T04:47:30.556Z,6.60
2018-07-20T04:49:59.409Z,6.47
2018-07-20T04:52:28.157Z,7.43
2018-07-20T04:54:56.979Z,8.33
2018-07-20T04:57:25.813Z,8.93
2018-07-20T04:59:54.578Z,7.60
2018-07-20T05:02:23.627Z,7.03
2018-07-20T05:04:52.482Z,6.17
2018-07-20T05:07:21.336Z,7.70
2018-07-20T05:09:50.142Z,7.30
2018-07-20T05:12:19.291Z,7.10
2018-07-20T05:14:48.135Z,7.63
2018-07-20T05:17:16.928Z,7.40
2018-07-20T05:19:45.690Z,8.93
2018-07-20T05:22:19.490Z,8.17
2018-07-20T05:24:48.263Z,7.00
2018-07-20T05:27:17.034Z,9.20
2018-07-20T05:29:45.842Z,6.57
2018-07-20T05:32:14.715Z,7.27
2018-07-20T05:34:43.593Z,7.93
2018-07-20T05:37:12.394Z,8.83
2018-07-20T05:39:41.298Z,6.93
2018-07-20T05:42:10.120Z,7.50
2018-07-20T05:44:38.970Z,7.80
2018-07-20T05:47:07.743Z,10.23
2018-07-20T05:49:36.494Z,7.40
2018-07-20T05:52:05.261Z,8.87
2018-07-20T05:54:34.062Z,9.10
2018-07-20T05:57:03.301Z,9.93
2018-07-20T05:59:32.067Z,7.70
2018-07-20T06:02:00.861Z,8.90
2018-07-20T06:04:29.658Z,6.87
2018-07-20T06:06:58.494Z,6.70
2018-07-20T06:09:27.220Z,9.90
2018-07-20T06:11:56.016Z,7.00
2018-07-20T06:14:24.774Z,8.60
2018-07-20T06:16:53.616Z,7.87
2018-07-20T06:19:22.426Z,10.60
2018-07-20T06:21:51.259Z,10.27
2018-07-20T06:24:20.071Z,8.43
2018-07-20T06:26:48.901Z,7.30
2018-07-20T06:29:17.723Z,9.00
2018-07-20T06:31:46.562Z,12.10
2018-07-20T06:34:15.357Z,13.63
2018-07-20T06:36:44.111Z,11.97
2018-07-20T06:39:13.338Z,8.37
2018-07-20T06:41:42.631Z,10.33
2018-07-20T06:44:11.476Z,15.60
2018-07-20T06:46:40.275Z,10.67
2018-07-20T06:49:09.093Z,11.60
2018-07-20T06:51:38.055Z,10.93
2018-07-20T06:54:06.854Z,9.60
2018-07-20T06:56:35.663Z,10.93
2018-07-20T06:59:04.493Z,9.70
2018-07-20T07:01:33.488Z,10.13
2018-07-20T07:04:02.480Z,7.70
2018-07-20T07:06:31.239Z,8.60
2018-07-20T07:09:00.071Z,9.87
2018-07-20T07:11:29.186Z,7.50
2018-07-20T07:13:57.966Z,8.20
2018-07-20T07:16:26.770Z,6.33
2018-07-20T07:18:55.576Z,7.07
2018-07-20T07:21:24.400Z,6.70
2018-07-20T07:23:53.168Z,8.30
2018-07-20T07:26:21.935Z,6.60
2018-07-20T07:28:50.762Z,6.83
2018-07-20T07:31:19.826Z,7.07
2018-07-20T07:33:48.585Z,9.00
2018-07-20T07:36:17.412Z,6.70
2018-07-20T07:38:46.198Z,8.33
2018-07-20T07:41:14.970Z,5.10
2018-07-20T07:43:43.794Z,5.80
2018-07-20T07:46:12.555Z,6.47
2018-07-20T07:48:41.326Z,5.63
2018-07-20T07:51:10.097Z,5.13
2018-07-20T07:53:39.093Z,5.20
2018-07-20T07:56:07.948Z,7.30
2018-07-20T07:58:36.698Z,5.87
2018-07-20T08:01:05.781Z,5.60
2018-07-20T08:03:34.610Z,5.33
2018-07-20T08:06:03.360Z,6.00
2018-07-20T08:08:32.164Z,6.53
2018-07-20T08:11:01.104Z,6.93
2018-07-20T08:13:29.838Z,7.50
2018-07-20T08:15:58.652Z,9.10
2018-07-20T08:18:27.845Z,8.17
2018-07-20T08:20:56.855Z,7.27
2018-07-20T08:23:25.586Z,8.33
2018-07-20T08:25:54.371Z,9.20
2018-07-20T08:28:23.203Z,7.10
2018-07-20T08:30:52.301Z,6.87
2018-07-20T08:33:21.117Z,7.13
2018-07-20T08:35:49.976Z,7.00
2018-07-20T08:38:18.884Z,6.80
2018-07-20T08:40:47.839Z,7.03
2018-07-20T08:43:16.622Z,7.40
2018-07-20T08:45:45.417Z,7.93
2018-07-20T08:48:14.253Z,8.57
2018-07-20T08:50:43.942Z,7.58
2018-07-20T08:53:12.899Z,8.03
2018-07-20T08:55:41.726Z,7.37
2018-07-20T08:58:10.490Z,6.65
2018-07-20T09:00:39.736Z,9.30
2018-07-20T09:03:08.723Z,13.58
2018-07-20T09:05:37.539Z,6.50
2018-07-20T09:08:06.364Z,7.33
2018-07-20T09:10:35.159Z,7.78
2018-07-20T09:13:03.966Z,7.35
2018-07-20T09:15:32.797Z,6.47
2018-07-20T09:18:01.568Z,6.83
2018-07-20T09:20:30.371Z,6.17
2018-07-20T09:22:59.134Z,6.03
2018-07-20T09:25:27.907Z,10.93
2018-07-20T09:27:56.779Z,6.42
2018-07-20T09:30:25.590Z,6.75
2018-07-20T09:32:54.569Z,6.87
2018-07-20T09:35:23.316Z,7.03
2018-07-20T09:37:52.128Z,6.50
2018-07-20T09:40:21.003Z,6.72
2018-07-20T09:42:55.090Z,6.97
2018-07-20T09:45:23.873Z,7.10
2018-07-20T09:47:52.647Z,8.33
2018-07-20T09:50:21.508Z,8.20
2018-07-20T09:52:50.303Z,8.48
2018-07-20T09:55:19.131Z,9.03
2018-07-20T09:57:47.887Z,10.43
2018-07-20T10:00:49.454Z,7.37
2018-07-20T10:03:18.674Z,9.23
2018-07-20T10:05:47.899Z,7.03
2018-07-20T10:08:17.265Z,6.75
2018-07-20T10:10:46.424Z,7.78
2018-07-20T10:13:15.220Z,7.47
2018-07-20T10:15:44.020Z,7.62
2018-07-20T10:18:12.787Z,6.72
2018-07-20T10:20:41.626Z,9.53
2018-07-20T10:23:10.427Z,7.80
2018-07-20T10:25:39.301Z,7.17
2018-07-20T10:28:08.037Z,6.78
2018-07-20T10:30:36.908Z,8.95
2018-07-20T10:33:05.740Z,7.37
2018-07-20T10:35:34.541Z,7.30
2018-07-20T10:38:03.369Z,7.60
2018-07-20T10:40:32.116Z,7.70
2018-07-20T10:43:00.863Z,7.85
2018-07-20T10:45:29.667Z,7.70
2018-07-20T10:47:58.439Z,10.10
2018-07-20T10:50:27.258Z,7.30
2018-07-20T10:52:56.022Z,7.45
2018-07-20T10:55:24.847Z,10.32
2018-07-20T10:57:53.655Z,8.35
2018-07-20T11:00:22.423Z,8.33
2018-07-20T11:02:51.268Z,9.08
2018-07-20T11:05:20.096Z,7.65
2018-07-20T11:07:48.931Z,7.35
2018-07-20T11:10:18.558Z,11.05
2018-07-20T11:12:47.406Z,7.83
2018-07-20T11:15:16.183Z,7.45
2018-07-20T11:17:44.921Z,7.17
2018-07-20T11:20:13.722Z,7.22
2018-07-20T11:22:42.520Z,10.72
2018-07-20T11:25:11.246Z,7.55
2018-07-20T11:27:40.081Z,7.53
2018-07-20T11:30:08.880Z,7.20
2018-07-20T11:32:37.783Z,8.83
2018-07-20T11:35:06.605Z,7.53
2018-07-20T11:37:35.407Z,7.70
2018-07-20T11:40:04.268Z,7.33
2018-07-20T11:42:33.055Z,8.13
2018-07-20T11:45:16.039Z,7.30
2018-07-20T11:47:44.820Z,7.87
2018-07-20T11:50:13.898Z,7.17
2018-07-20T11:52:42.744Z,7.42
2018-07-20T11:55:11.555Z,9.13
2018-07-20T11:57:40.359Z,7.08
2018-07-20T12:00:09.163Z,8.13
2018-07-20T12:02:37.943Z,6.72
2018-07-20T12:05:06.821Z,10.88
2018-07-20T12:07:35.671Z,9.70
2018-07-20T12:10:04.478Z,11.08
2018-07-20T12:12:33.389Z,7.22
2018-07-20T12:15:02.216Z,7.55
2018-07-20T12:17:31.010Z,7.37
2018-07-20T12:19:59.797Z,6.95
2018-07-20T12:22:28.605Z,6.72
2018-07-20T12:24:57.354Z,7.25
2018-07-20T12:27:26.219Z,8.98
2018-07-20T12:29:55.017Z,8.30
2018-07-20T12:32:23.850Z,8.10
2018-07-20T12:34:52.668Z,8.85
2018-07-20T12:37:21.398Z,7.53
2018-07-20T12:39:50.186Z,7.00
2018-07-20T12:42:24.072Z,6.87
2018-07-20T12:44:52.898Z,8.80
2018-07-20T12:47:21.687Z,7.28
2018-07-20T12:49:50.494Z,7.53
2018-07-20T12:52:19.210Z,7.00
2018-07-20T12:54:47.968Z,7.22
2018-07-20T12:57:16.760Z,7.30
2018-07-20T12:59:45.559Z,8.68
2018-07-20T13:02:14.592Z,7.83
2018-07-20T13:04:43.341Z,6.92
2018-07-20T13:07:12.131Z,9.80
2018-07-20T13:09:40.927Z,6.55
2018-07-20T13:14:52.619Z,7.03
2018-07-20T13:17:21.367Z,7.70
2018-07-20T13:19:50.146Z,7.47
2018-07-20T13:22:18.926Z,7.62
2018-07-20T13:24:47.719Z,8.05
2018-07-20T13:27:30.845Z,6.87
2018-07-20T13:29:59.650Z,11.08
2018-07-20T13:32:33.606Z,6.90
2018-07-20T13:35:02.395Z,7.50
2018-07-20T13:37:31.139Z,7.70
2018-07-20T13:39:59.921Z,8.30
2018-07-20T13:42:28.844Z,8.70
2018-07-20T13:44:57.550Z,7.65
2018-07-20T13:47:26.320Z,7.60
2018-07-20T13:49:55.096Z,7.85
2018-07-20T13:52:23.936Z,7.72
2018-07-20T13:54:52.712Z,8.13
2018-07-20T13:57:21.498Z,12.05
2018-07-20T13:59:50.282Z,7.80
2018-07-20T14:02:19.116Z,9.65
2018-07-20T14:04:47.916Z,8.40
2018-07-20T14:07:16.666Z,9.00
2018-07-20T14:09:45.451Z,10.88
2018-07-20T14:12:14.292Z,7.80
2018-07-20T14:14:44.006Z,10.58
2018-07-20T14:17:12.845Z,6.95
2018-07-20T14:19:41.638Z,7.60
2018-07-20T14:22:10.486Z,7.60
2018-07-20T14:24:39.344Z,10.00
2018-07-20T14:27:08.080Z,10.90
2018-07-20T14:29:36.936Z,5.12
2018-07-20T14:32:05.860Z,5.17
2018-07-20T14:34:34.647Z,5.10
2018-07-20T14:37:03.514Z,5.00
2018-07-20T14:39:32.333Z,5.40
2018-07-20T14:42:01.631Z,7.07
2018-07-20T14:44:30.455Z,9.57
2018-07-20T14:46:59.223Z,8.87
2018-07-20T14:49:28.094Z,7.70
2018-07-20T14:51:56.862Z,7.07
2018-07-20T14:54:25.700Z,8.23
2018-07-20T14:56:54.571Z,10.90
2018-07-20T14:59:23.364Z,8.83
2018-07-20T15:01:52.203Z,9.47
2018-07-20T15:04:21.055Z,8.33
2018-07-20T15:06:49.927Z,10.33
2018-07-20T15:09:18.720Z,9.37
2018-07-20T15:11:47.589Z,12.43
2018-07-20T15:14:16.392Z,15.17
2018-07-20T15:16:45.236Z,13.20
2018-07-20T15:19:14.039Z,12.63
2018-07-20T15:21:42.856Z,13.63
2018-07-20T15:24:11.635Z,15.10
2018-07-20T15:26:40.442Z,12.70
2018-07-20T15:29:09.390Z,12.47
2018-07-20T15:31:38.392Z,15.53
2018-07-20T15:34:07.482Z,10.20
2018-07-20T15:36:36.272Z,11.23
2018-07-20T15:39:07.986Z,11.13
2018-07-20T15:41:37.050Z,11.50
2018-07-20T15:44:05.875Z,9.43
2018-07-20T15:46:34.898Z,11.80
2018-07-20T15:49:03.677Z,11.70
2018-07-20T15:53:35.050Z,8.07
2018-07-20T15:54:01.427Z,12.77
2018-07-20T15:56:30.094Z,10.17
2018-07-20T15:58:58.880Z,11.50
2018-07-20T16:01:27.690Z,7.80
2018-07-20T16:03:56.534Z,8.30
2018-07-20T16:06:25.369Z,10.93
2018-07-20T16:08:54.211Z,9.40
2018-07-20T16:11:23.012Z,9.73
2018-07-20T16:13:51.793Z,11.53
2018-07-20T16:16:20.615Z,10.03
2018-07-20T16:18:49.513Z,8.93
2018-07-20T16:21:27.759Z,8.00
2018-07-20T16:23:56.542Z,11.00
2018-07-20T16:26:25.357Z,7.77
2018-07-20T16:28:54.171Z,10.43
2018-07-20T16:31:22.974Z,8.83
2018-07-20T16:33:51.820Z,10.03
2018-07-20T16:36:20.631Z,8.13
2018-07-20T16:38:49.427Z,11.87
2018-07-20T16:41:18.432Z,9.40
2018-07-20T16:43:47.670Z,12.77
2018-07-20T16:46:16.451Z,12.23
2018-07-20T16:48:45.427Z,11.10
2018-07-20T16:51:27.851Z,10.07
2018-07-20T16:53:56.629Z,12.13
2018-07-20T16:56:25.414Z,10.07
2018-07-20T16:58:54.152Z,9.50
2018-07-20T17:01:22.941Z,12.43
2018-07-20T17:03:51.906Z,12.57
2018-07-20T17:06:20.977Z,12.73
2018-07-20T17:08:49.766Z,13.40
2018-07-20T17:11:18.625Z,11.00
2018-07-20T17:13:47.699Z,12.83
2018-07-20T17:16:17.045Z,10.63
2018-07-20T17:18:45.844Z,8.60
2018-07-20T17:21:24.134Z,10.80
2018-07-20T17:23:53.475Z,8.93
2018-07-20T17:26:22.283Z,11.07
2018-07-20T17:28:51.272Z,12.40
2018-07-20T17:31:20.075Z,11.10
2018-07-20T17:33:48.902Z,16.63
2018-07-20T17:36:17.721Z,13.80
2018-07-20T17:38:46.529Z,15.60
2018-07-20T17:41:15.480Z,14.53
2018-07-20T17:43:44.315Z,12.80
2018-07-20T17:46:13.216Z,13.03
2018-07-20T17:48:42.193Z,10.63
2018-07-20T17:51:11.290Z,13.40
2018-07-20T17:53:40.127Z,12.93
2018-07-20T17:56:08.920Z,12.13
2018-07-20T17:58:37.751Z,12.43
2018-07-20T18:01:06.694Z,15.30
2018-07-20T18:03:35.451Z,14.43
2018-07-20T18:06:04.481Z,12.40
2018-07-20T18:08:33.409Z,11.57
2018-07-20T18:11:02.278Z,12.80
2018-07-20T18:13:31.232Z,10.80
2018-07-20T18:16:00.097Z,11.97
2018-07-20T18:18:28.949Z,9.63
2018-07-20T18:20:57.775Z,11.60
2018-07-20T18:23:26.628Z,10.30
2018-07-20T18:25:55.456Z,12.90
2018-07-20T18:28:24.332Z,9.23
2018-07-20T18:30:53.503Z,10.30
2018-07-20T18:33:22.448Z,10.00
2018-07-20T18:35:51.339Z,11.70
2018-07-20T18:38:20.112Z,9.07
2018-07-20T18:40:48.965Z,9.33
2018-07-20T18:43:17.878Z,15.27
2018-07-20T18:45:46.684Z,12.00
2018-07-20T18:48:15.570Z,10.43
2018-07-20T18:50:44.383Z,9.00
2018-07-20T18:53:13.773Z,10.00
2018-07-20T18:55:42.585Z,10.20
2018-07-20T18:58:11.385Z,10.87
2018-07-20T19:00:40.227Z,10.83
2018-07-20T19:03:09.061Z,13.97
2018-07-20T19:05:37.819Z,12.47
2018-07-20T19:08:06.778Z,9.83
2018-07-20T19:10:35.602Z,10.23
2018-07-20T19:13:04.667Z,10.47
2018-07-20T19:15:33.455Z,9.57
2018-07-20T19:18:02.215Z,8.77
2018-07-20T19:20:31.057Z,8.80
2018-07-20T19:22:59.938Z,11.77
2018-07-20T19:25:28.741Z,8.03
2018-07-20T19:27:57.519Z,8.80
2018-07-20T19:30:26.306Z,9.00
2018-07-20T19:32:55.329Z,8.23
2018-07-20T19:35:24.154Z,8.27
2018-07-20T19:37:52.926Z,8.60
2018-07-20T19:40:21.944Z,7.23
2018-07-20T19:42:50.675Z,7.53
2018-07-20T19:45:19.539Z,9.70
2018-07-20T19:47:49.150Z,8.20
2018-07-20T19:50:17.927Z,6.67
2018-07-20T19:52:46.783Z,10.10
2018-07-20T19:55:15.563Z,7.50
2018-07-20T19:57:44.328Z,7.07
2018-07-20T20:00:13.175Z,6.07
2018-07-20T20:02:42.128Z,5.40
2018-07-20T20:05:10.919Z,6.23
2018-07-20T20:07:39.688Z,6.77
2018-07-20T20:10:08.491Z,6.00
2018-07-20T20:12:37.346Z,6.13
2018-07-20T20:15:06.320Z,5.90
2018-07-20T20:17:35.167Z,6.60
2018-07-20T20:20:04.118Z,6.03
2018-07-20T20:22:32.870Z,6.20
2018-07-20T20:25:01.695Z,6.50
2018-07-20T20:27:30.436Z,8.93
2018-07-20T20:32:42.368Z,7.97
2018-07-20T20:35:11.307Z,7.27
2018-07-20T20:37:40.082Z,6.57
2018-07-20T20:40:09.405Z,6.20
2018-07-20T20:44:07.358Z,6.67
2018-07-20T20:46:36.221Z,6.43
2018-07-20T20:49:05.006Z,6.00
2018-07-20T20:51:33.809Z,7.83
2018-07-20T20:54:02.655Z,5.93
2018-07-20T20:56:31.443Z,8.13
2018-07-20T20:59:00.406Z,7.47
2018-07-20T21:01:29.070Z,6.20
2018-07-20T21:03:57.863Z,7.03
2018-07-20T21:06:26.651Z,8.53
2018-07-20T21:08:55.508Z,9.33
2018-07-20T21:11:29.526Z,10.57
2018-07-20T21:13:58.318Z,7.57
2018-07-20T21:16:27.142Z,7.33
2018-07-20T21:18:55.912Z,8.00
2018-07-20T21:21:24.948Z,8.90
2018-07-20T21:23:53.819Z,8.37
2018-07-20T21:26:22.619Z,10.07
2018-07-20T21:28:51.371Z,10.03
2018-07-20T21:31:20.207Z,7.70
2018-07-20T21:33:48.942Z,9.77
2018-07-20T21:36:17.795Z,8.93
2018-07-20T21:38:46.598Z,10.63
2018-07-20T21:41:15.385Z,11.03
2018-07-20T21:43:44.164Z,12.37
2018-07-20T21:46:12.923Z,9.03
2018-07-20T21:48:41.711Z,13.87
2018-07-20T21:51:10.541Z,12.10
2018-07-20T21:53:39.396Z,11.33
2018-07-20T21:56:08.318Z,10.47
2018-07-20T21:58:37.125Z,8.97
2018-07-20T22:01:05.982Z,11.60
2018-07-20T22:03:34.717Z,9.63
2018-07-20T22:06:03.505Z,10.90
2018-07-20T22:08:32.323Z,9.67
2018-07-20T22:11:01.135Z,8.20
2018-07-20T22:13:29.942Z,11.23
2018-07-20T22:15:58.767Z,12.03
2018-07-20T22:18:27.583Z,9.70
2018-07-20T22:20:56.335Z,11.87
2018-07-20T22:23:25.177Z,8.20
2018-07-20T22:25:53.978Z,9.80
2018-07-20T22:28:22.776Z,7.70
2018-07-20T22:30:51.611Z,7.90
2018-07-20T22:33:20.429Z,8.00
2018-07-20T22:35:49.272Z,8.30
2018-07-20T22:38:18.111Z,9.60
2018-07-20T22:40:46.891Z,8.50
2018-07-20T22:43:15.692Z,5.53
2018-07-20T22:45:44.483Z,6.33
2018-07-20T22:48:13.310Z,6.07
2018-07-20T22:50:42.215Z,6.53
2018-07-20T22:53:11.034Z,5.20
2018-07-20T22:55:39.873Z,5.53
2018-07-20T22:58:08.639Z,5.70
2018-07-20T23:00:37.428Z,2.80
2018-07-20T23:03:06.276Z,2.20
2018-07-20T23:05:35.107Z,1.93
2018-07-20T23:08:03.871Z,2.60
2018-07-20T23:10:32.669Z,1.70
2018-07-20T23:13:01.426Z,1.83
2018-07-20T23:15:30.210Z,1.87
2018-07-20T23:17:59.021Z,2.10
2018-07-20T23:20:27.792Z,5.43
2018-07-20T23:22:56.581Z,3.03
2018-07-20T23:25:25.331Z,2.73
2018-07-20T23:27:54.143Z,4.13
2018-07-20T23:30:22.957Z,2.17
2018-07-20T23:32:51.792Z,4.13
2018-07-20T23:35:20.645Z,3.87
2018-07-20T23:37:49.475Z,3.57
2018-07-20T23:40:18.263Z,3.57
2018-07-20T23:42:47.021Z,3.43
2018-07-20T23:45:15.807Z,2.23
2018-07-20T23:47:44.602Z,2.60
2018-07-20T23:50:13.360Z,2.37
2018-07-20T23:52:42.217Z,4.13
2018-07-20T23:55:11.079Z,3.77
2018-07-20T23:57:39.902Z,3.30
